sensor_id;sensor_type;location;lat;lon;timestamp;pressure;altitude;pressure_sealevel;temperature;humidity
70954;BME280;58618;47.490;8.736;2023-08-24T00:00:50;96682.88;;;19.59;100.00
70954;BME280;58618;47.490;8.736;2023-08-24T00:03:39;96684.41;;;19.60;100.00
70954;BME280;58618;47.490;8.736;2023-08-24T00:06:27;96673.94;;;19.60;100.00
70954;BME280;58618;47.490;8.736;2023-08-24T00:09:14;96667.19;;;19.59;100.00
70954;BME280;58618;47.490;8.736;2023-08-24T00:12:02;96671.75;;;19.50;100.00
70954;BME280;58618;47.490;8.736;2023-08-24T00:14:50;96667.34;;;19.42;100.00
70954;BME280;58618;47.490;8.736;2023-08-24T00:17:37;96666.47;;;19.38;100.00
70954;BME280;58618;47.490;8.736;2023-08-24T00:20:26;96665.97;;;19.45;100.00
70954;BME280;58618;47.490;8.736;2023-08-24T00:23:13;96665.59;;;19.34;100.00
70954;BME280;58618;47.490;8.736;2023-08-24T00:26:01;96665.81;;;19.29;100.00
70954;BME280;58618;47.490;8.736;2023-08-24T00:28:48;96672.13;;;19.28;100.00
70954;BME280;58618;47.490;8.736;2023-08-24T00:31:35;96669.28;;;19.33;100.00
70954;BME280;58618;47.490;8.736;2023-08-24T00:34:23;96674.41;;;19.29;100.00
70954;BME280;58618;47.490;8.736;2023-08-24T00:37:11;96675.38;;;19.25;100.00
70954;BME280;58618;47.490;8.736;2023-08-24T00:39:59;96674.38;;;19.17;100.00
70954;BME280;58618;47.490;8.736;2023-08-24T00:42:47;96674.13;;;19.10;100.00
70954;BME280;58618;47.490;8.736;2023-08-24T00:45:34;96664.75;;;19.09;100.00
70954;BME280;58618;47.490;8.736;2023-08-24T00:48:22;96656.47;;;19.07;100.00
70954;BME280;58618;47.490;8.736;2023-08-24T00:51:11;96660.94;;;19.07;100.00
70954;BME280;58618;47.490;8.736;2023-08-24T00:54:00;96667.38;;;19.09;100.00
70954;BME280;58618;47.490;8.736;2023-08-24T00:56:48;96666.69;;;19.00;100.00
70954;BME280;58618;47.490;8.736;2023-08-24T00:59:35;96659.63;;;19.01;100.00
70954;BME280;58618;47.490;8.736;2023-08-24T01:02:23;96659.16;;;18.98;100.00
70954;BME280;58618;47.490;8.736;2023-08-24T01:05:10;96658.38;;;18.86;100.00
70954;BME280;58618;47.490;8.736;2023-08-24T01:07:58;96661.75;;;18.86;100.00
70954;BME280;58618;47.490;8.736;2023-08-24T01:10:50;96655.63;;;18.82;100.00
70954;BME280;58618;47.490;8.736;2023-08-24T01:13:46;96654.72;;;18.78;100.00
70954;BME280;58618;47.490;8.736;2023-08-24T01:16:38;96653.19;;;18.77;100.00
70954;BME280;58618;47.490;8.736;2023-08-24T01:19:35;96655.38;;;18.75;100.00
70954;BME280;58618;47.490;8.736;2023-08-24T01:22:32;96645.56;;;18.72;100.00
70954;BME280;58618;47.490;8.736;2023-08-24T01:25:24;96649.03;;;18.64;100.00
70954;BME280;58618;47.490;8.736;2023-08-24T01:28:20;96648.56;;;18.62;100.00
70954;BME280;58618;47.490;8.736;2023-08-24T01:31:08;96651.06;;;18.59;100.00
70954;BME280;58618;47.490;8.736;2023-08-24T01:33:55;96635.28;;;18.55;100.00
70954;BME280;58618;47.490;8.736;2023-08-24T01:36:43;96638.31;;;18.57;100.00
70954;BME280;58618;47.490;8.736;2023-08-24T01:39:38;96632.31;;;18.56;100.00
70954;BME280;58618;47.490;8.736;2023-08-24T01:42:31;96643.38;;;18.53;100.00
70954;BME280;58618;47.490;8.736;2023-08-24T01:45:24;96643.28;;;18.50;100.00
70954;BME280;58618;47.490;8.736;2023-08-24T01:48:14;96641.75;;;18.49;100.00
70954;BME280;58618;47.490;8.736;2023-08-24T01:51:03;96631.28;;;18.49;100.00
70954;BME280;58618;47.490;8.736;2023-08-24T01:53:52;96627.34;;;18.43;100.00
70954;BME280;58618;47.490;8.736;2023-08-24T01:56:40;96617.28;;;18.33;100.00
70954;BME280;58618;47.490;8.736;2023-08-24T01:59:27;96602.22;;;18.30;100.00
70954;BME280;58618;47.490;8.736;2023-08-24T02:02:16;96597.91;;;18.34;100.00
70954;BME280;58618;47.490;8.736;2023-08-24T02:05:04;96592.69;;;18.34;100.00
70954;BME280;58618;47.490;8.736;2023-08-24T02:07:51;96591.47;;;18.31;100.00
70954;BME280;58618;47.490;8.736;2023-08-24T02:10:38;96583.63;;;18.31;100.00
70954;BME280;58618;47.490;8.736;2023-08-24T02:13:26;96588.22;;;18.34;100.00
70954;BME280;58618;47.490;8.736;2023-08-24T02:16:13;96584.91;;;18.25;100.00
70954;BME280;58618;47.490;8.736;2023-08-24T02:19:02;96571.03;;;18.12;100.00
70954;BME280;58618;47.490;8.736;2023-08-24T02:21:49;96593.97;;;18.28;100.00
70954;BME280;58618;47.490;8.736;2023-08-24T02:24:36;96593.31;;;18.31;100.00
70954;BME280;58618;47.490;8.736;2023-08-24T02:27:23;96601.22;;;18.22;100.00
70954;BME280;58618;47.490;8.736;2023-08-24T02:30:12;96584.53;;;18.14;100.00
70954;BME280;58618;47.490;8.736;2023-08-24T02:32:59;96573.50;;;18.30;100.00
70954;BME280;58618;47.490;8.736;2023-08-24T02:35:49;96579.44;;;18.39;100.00
70954;BME280;58618;47.490;8.736;2023-08-24T02:38:36;96566.81;;;18.20;100.00
70954;BME280;58618;47.490;8.736;2023-08-24T02:41:24;96568.09;;;18.14;100.00
70954;BME280;58618;47.490;8.736;2023-08-24T02:44:11;96574.66;;;18.20;100.00
70954;BME280;58618;47.490;8.736;2023-08-24T02:46:58;96567.59;;;18.21;100.00
70954;BME280;58618;47.490;8.736;2023-08-24T02:49:45;96569.63;;;18.15;100.00
70954;BME280;58618;47.490;8.736;2023-08-24T02:52:34;96562.94;;;18.05;100.00
70954;BME280;58618;47.490;8.736;2023-08-24T02:55:22;96565.44;;;18.02;100.00
70954;BME280;58618;47.490;8.736;2023-08-24T02:58:09;96570.31;;;18.03;100.00
70954;BME280;58618;47.490;8.736;2023-08-24T03:00:57;96565.44;;;18.02;100.00
70954;BME280;58618;47.490;8.736;2023-08-24T03:03:44;96554.22;;;18.01;100.00
70954;BME280;58618;47.490;8.736;2023-08-24T03:06:31;96557.66;;;17.93;100.00
70954;BME280;58618;47.490;8.736;2023-08-24T03:09:20;96558.09;;;17.95;100.00
70954;BME280;58618;47.490;8.736;2023-08-24T03:12:08;96550.00;;;17.88;100.00
70954;BME280;58618;47.490;8.736;2023-08-24T03:14:55;96550.34;;;17.87;100.00
70954;BME280;58618;47.490;8.736;2023-08-24T03:17:42;96555.88;;;17.85;100.00
70954;BME280;58618;47.490;8.736;2023-08-24T03:20:30;96548.84;;;17.77;100.00
70954;BME280;58618;47.490;8.736;2023-08-24T03:23:18;96549.63;;;17.78;100.00
70954;BME280;58618;47.490;8.736;2023-08-24T03:26:06;96549.94;;;17.76;100.00
70954;BME280;58618;47.490;8.736;2023-08-24T03:28:54;96553.19;;;17.73;100.00
70954;BME280;58618;47.490;8.736;2023-08-24T03:31:41;96559.81;;;17.70;100.00
70954;BME280;58618;47.490;8.736;2023-08-24T03:34:28;96566.72;;;17.66;100.00
70954;BME280;58618;47.490;8.736;2023-08-24T03:37:17;96560.56;;;17.71;100.00
70954;BME280;58618;47.490;8.736;2023-08-24T03:40:05;96565.50;;;17.64;100.00
70954;BME280;58618;47.490;8.736;2023-08-24T03:42:54;96555.84;;;17.64;100.00
70954;BME280;58618;47.490;8.736;2023-08-24T03:45:42;96561.31;;;17.71;100.00
70954;BME280;58618;47.490;8.736;2023-08-24T03:48:30;96558.13;;;17.66;100.00
70954;BME280;58618;47.490;8.736;2023-08-24T03:51:17;96554.91;;;17.69;100.00
70954;BME280;58618;47.490;8.736;2023-08-24T03:54:05;96558.13;;;17.66;100.00
70954;BME280;58618;47.490;8.736;2023-08-24T03:56:52;96556.31;;;17.58;100.00
70954;BME280;58618;47.490;8.736;2023-08-24T03:59:41;96557.38;;;17.57;100.00
70954;BME280;58618;47.490;8.736;2023-08-24T04:02:28;96548.97;;;17.60;100.00
70954;BME280;58618;47.490;8.736;2023-08-24T04:05:16;96554.19;;;17.60;100.00
70954;BME280;58618;47.490;8.736;2023-08-24T04:08:04;96563.25;;;17.54;100.00
70954;BME280;58618;47.490;8.736;2023-08-24T04:10:51;96554.53;;;17.50;100.00
70954;BME280;58618;47.490;8.736;2023-08-24T04:13:38;96557.31;;;17.45;100.00
70954;BME280;58618;47.490;8.736;2023-08-24T04:16:27;96552.69;;;17.42;100.00
70954;BME280;58618;47.490;8.736;2023-08-24T04:19:17;96554.38;;;17.46;100.00
70954;BME280;58618;47.490;8.736;2023-08-24T04:22:04;96548.84;;;17.48;100.00
70954;BME280;58618;47.490;8.736;2023-08-24T04:24:52;96541.19;;;17.43;100.00
70954;BME280;58618;47.490;8.736;2023-08-24T04:27:39;96536.28;;;17.41;100.00
70954;BME280;58618;47.490;8.736;2023-08-24T04:30:27;96538.31;;;17.36;100.00
70954;BME280;58618;47.490;8.736;2023-08-24T04:33:16;96545.06;;;17.37;100.00
70954;BME280;58618;47.490;8.736;2023-08-24T04:36:04;96539.19;;;17.40;100.00
70954;BME280;58618;47.490;8.736;2023-08-24T04:38:51;96543.81;;;17.43;100.00
70954;BME280;58618;47.490;8.736;2023-08-24T04:41:38;96549.50;;;17.36;100.00
70954;BME280;58618;47.490;8.736;2023-08-24T04:44:26;96549.03;;;17.43;100.00
70954;BME280;58618;47.490;8.736;2023-08-24T04:47:13;96546.88;;;17.45;100.00
70954;BME280;58618;47.490;8.736;2023-08-24T04:50:02;96550.38;;;17.49;100.00
70954;BME280;58618;47.490;8.736;2023-08-24T04:52:51;96554.91;;;17.69;100.00
70954;BME280;58618;47.490;8.736;2023-08-24T04:55:38;96545.16;;;17.78;100.00
70954;BME280;58618;47.490;8.736;2023-08-24T04:58:25;96556.84;;;17.72;100.00
70954;BME280;58618;47.490;8.736;2023-08-24T05:01:12;96550.38;;;17.78;100.00
70954;BME280;58618;47.490;8.736;2023-08-24T05:04:00;96558.28;;;17.90;100.00
70954;BME280;58618;47.490;8.736;2023-08-24T05:06:49;96550.16;;;18.12;100.00
70954;BME280;58618;47.490;8.736;2023-08-24T05:09:36;96552.59;;;18.30;100.00
70954;BME280;58618;47.490;8.736;2023-08-24T05:12:23;96561.06;;;18.68;100.00
70954;BME280;58618;47.490;8.736;2023-08-24T05:15:11;96557.41;;;18.93;100.00
70954;BME280;58618;47.490;8.736;2023-08-24T05:17:59;96563.47;;;19.18;100.00
70954;BME280;58618;47.490;8.736;2023-08-24T05:20:46;96554.44;;;19.40;100.00
70954;BME280;58618;47.490;8.736;2023-08-24T05:23:35;96546.38;;;19.45;100.00
70954;BME280;58618;47.490;8.736;2023-08-24T05:26:22;96563.38;;;19.75;100.00
70954;BME280;58618;47.490;8.736;2023-08-24T05:29:10;96558.31;;;19.95;100.00
70954;BME280;58618;47.490;8.736;2023-08-24T05:31:58;96552.72;;;20.08;100.00
70954;BME280;58618;47.490;8.736;2023-08-24T05:34:46;96545.41;;;20.14;100.00
70954;BME280;58618;47.490;8.736;2023-08-24T05:37:33;96552.34;;;20.22;100.00
70954;BME280;58618;47.490;8.736;2023-08-24T05:40:22;96545.13;;;20.31;100.00
70954;BME280;58618;47.490;8.736;2023-08-24T05:43:09;96540.66;;;20.32;100.00
70954;BME280;58618;47.490;8.736;2023-08-24T05:45:56;96547.72;;;20.43;100.00
70954;BME280;58618;47.490;8.736;2023-08-24T05:48:44;96544.94;;;20.52;100.00
70954;BME280;58618;47.490;8.736;2023-08-24T05:51:31;96545.69;;;20.80;100.00
70954;BME280;58618;47.490;8.736;2023-08-24T05:54:19;96553.19;;;20.66;100.00
70954;BME280;58618;47.490;8.736;2023-08-24T05:57:07;96562.09;;;20.49;100.00
70954;BME280;58618;47.490;8.736;2023-08-24T05:59:55;96558.88;;;20.40;100.00
70954;BME280;58618;47.490;8.736;2023-08-24T06:02:42;96553.63;;;20.40;100.00
70954;BME280;58618;47.490;8.736;2023-08-24T06:05:29;96545.69;;;20.52;100.00
70954;BME280;58618;47.490;8.736;2023-08-24T06:08:17;96558.75;;;20.64;100.00
70954;BME280;58618;47.490;8.736;2023-08-24T06:11:05;96554.19;;;20.61;100.00
70954;BME280;58618;47.490;8.736;2023-08-24T06:13:54;96549.31;;;20.76;100.00
70954;BME280;58618;47.490;8.736;2023-08-24T06:16:41;96540.00;;;20.94;100.00
70954;BME280;58618;47.490;8.736;2023-08-24T06:19:28;96554.00;;;21.14;100.00
70954;BME280;58618;47.490;8.736;2023-08-24T06:22:15;96540.69;;;21.54;100.00
70954;BME280;58618;47.490;8.736;2023-08-24T06:25:04;96534.28;;;21.86;100.00
70954;BME280;58618;47.490;8.736;2023-08-24T06:27:51;96535.69;;;22.38;100.00
70954;BME280;58618;47.490;8.736;2023-08-24T06:30:40;96542.72;;;22.53;100.00
70954;BME280;58618;47.490;8.736;2023-08-24T06:33:29;96544.09;;;22.85;100.00
70954;BME280;58618;47.490;8.736;2023-08-24T06:36:17;96541.63;;;23.41;100.00
70954;BME280;58618;47.490;8.736;2023-08-24T06:39:04;96539.47;;;24.33;100.00
70954;BME280;58618;47.490;8.736;2023-08-24T06:41:51;96538.84;;;24.83;100.00
70954;BME280;58618;47.490;8.736;2023-08-24T06:44:39;96551.50;;;25.01;100.00
70954;BME280;58618;47.490;8.736;2023-08-24T06:47:27;96553.59;;;25.80;100.00
70954;BME280;58618;47.490;8.736;2023-08-24T06:50:15;96558.59;;;25.99;100.00
70954;BME280;58618;47.490;8.736;2023-08-24T06:53:03;96569.06;;;25.81;100.00
70954;BME280;58618;47.490;8.736;2023-08-24T06:55:54;96567.44;;;26.31;100.00
70954;BME280;58618;47.490;8.736;2023-08-24T06:58:41;96567.25;;;27.28;100.00
70954;BME280;58618;47.490;8.736;2023-08-24T07:01:28;96565.75;;;27.20;100.00
70954;BME280;58618;47.490;8.736;2023-08-24T07:04:19;96569.91;;;27.25;100.00
70954;BME280;58618;47.490;8.736;2023-08-24T07:07:06;96568.03;;;27.57;100.00
70954;BME280;58618;47.490;8.736;2023-08-24T07:09:54;96569.44;;;27.97;100.00
70954;BME280;58618;47.490;8.736;2023-08-24T07:12:41;96570.56;;;28.03;100.00
70954;BME280;58618;47.490;8.736;2023-08-24T07:15:30;96570.78;;;29.14;93.87
70954;BME280;58618;47.490;8.736;2023-08-24T07:18:19;96558.56;;;29.27;94.06
70954;BME280;58618;47.490;8.736;2023-08-24T07:21:08;96571.28;;;28.29;99.07
70954;BME280;58618;47.490;8.736;2023-08-24T07:23:55;96552.88;;;27.12;100.00
70954;BME280;58618;47.490;8.736;2023-08-24T07:26:43;96549.47;;;27.33;100.00
70954;BME280;58618;47.490;8.736;2023-08-24T07:29:31;96560.75;;;27.93;100.00
70954;BME280;58618;47.490;8.736;2023-08-24T07:32:18;96536.19;;;29.21;90.68
70954;BME280;58618;47.490;8.736;2023-08-24T07:35:06;96535.03;;;28.74;90.90
70954;BME280;58618;47.490;8.736;2023-08-24T07:37:56;96524.41;;;30.34;81.70
70954;BME280;58618;47.490;8.736;2023-08-24T07:40:43;96530.94;;;30.83;80.17
70954;BME280;58618;47.490;8.736;2023-08-24T07:43:30;96528.28;;;29.96;81.72
70954;BME280;58618;47.490;8.736;2023-08-24T07:46:18;96528.84;;;31.21;73.10
70954;BME280;58618;47.490;8.736;2023-08-24T07:49:05;96532.44;;;30.61;77.82
70954;BME280;58618;47.490;8.736;2023-08-24T07:51:52;96531.34;;;29.09;82.77
70954;BME280;58618;47.490;8.736;2023-08-24T07:54:41;96534.44;;;30.53;74.43
70954;BME280;58618;47.490;8.736;2023-08-24T07:57:30;96523.97;;;30.93;70.23
70954;BME280;58618;47.490;8.736;2023-08-24T08:00:18;96524.16;;;30.79;74.12
70954;BME280;58618;47.490;8.736;2023-08-24T08:03:06;96525.16;;;30.88;71.12
70954;BME280;58618;47.490;8.736;2023-08-24T08:05:53;96532.41;;;32.56;63.05
70954;BME280;58618;47.490;8.736;2023-08-24T08:08:42;96525.72;;;31.26;68.71
70954;BME280;58618;47.490;8.736;2023-08-24T08:11:32;96529.91;;;31.04;68.57
70954;BME280;58618;47.490;8.736;2023-08-24T08:14:20;96517.00;;;31.69;65.72
70954;BME280;58618;47.490;8.736;2023-08-24T08:17:07;96519.97;;;30.54;70.29
70954;BME280;58618;47.490;8.736;2023-08-24T08:19:54;96512.91;;;30.10;74.78
70954;BME280;58618;47.490;8.736;2023-08-24T08:22:42;96516.66;;;29.45;78.72
70954;BME280;58618;47.490;8.736;2023-08-24T08:25:29;96508.63;;;29.08;83.79
70954;BME280;58618;47.490;8.736;2023-08-24T08:28:18;96506.91;;;30.33;79.09
70954;BME280;58618;47.490;8.736;2023-08-24T08:31:05;96505.81;;;31.54;69.00
70954;BME280;58618;47.490;8.736;2023-08-24T08:33:55;96500.94;;;31.29;71.51
70954;BME280;58618;47.490;8.736;2023-08-24T08:36:43;96518.44;;;31.07;70.98
70954;BME280;58618;47.490;8.736;2023-08-24T08:39:31;96517.09;;;32.93;64.38
70954;BME280;58618;47.490;8.736;2023-08-24T08:42:19;96522.38;;;33.29;61.72
70954;BME280;58618;47.490;8.736;2023-08-24T08:45:09;96527.31;;;32.46;61.57
70954;BME280;58618;47.490;8.736;2023-08-24T08:47:58;96525.53;;;32.91;57.61
70954;BME280;58618;47.490;8.736;2023-08-24T08:50:47;96526.44;;;33.01;59.38
70954;BME280;58618;47.490;8.736;2023-08-24T08:53:35;96522.75;;;32.26;64.04
70954;BME280;58618;47.490;8.736;2023-08-24T08:56:22;96527.53;;;32.71;60.16
70954;BME280;58618;47.490;8.736;2023-08-24T08:59:12;96518.88;;;32.11;69.35
70954;BME280;58618;47.490;8.736;2023-08-24T09:02:03;96521.31;;;32.02;65.11
70954;BME280;58618;47.490;8.736;2023-08-24T09:04:51;96524.97;;;32.48;64.25
70954;BME280;58618;47.490;8.736;2023-08-24T09:07:39;96520.81;;;32.63;60.44
70954;BME280;58618;47.490;8.736;2023-08-24T09:10:27;96514.69;;;32.98;58.00
70954;BME280;58618;47.490;8.736;2023-08-24T09:13:14;96513.22;;;32.61;59.01
70954;BME280;58618;47.490;8.736;2023-08-24T09:16:05;96510.34;;;32.52;62.60
70954;BME280;58618;47.490;8.736;2023-08-24T09:18:54;96503.03;;;32.56;63.25
70954;BME280;58618;47.490;8.736;2023-08-24T09:21:41;96499.31;;;33.02;59.41
70954;BME280;58618;47.490;8.736;2023-08-24T09:24:29;96498.72;;;32.79;64.31
70954;BME280;58618;47.490;8.736;2023-08-24T09:27:19;96497.66;;;32.04;60.59
70954;BME280;58618;47.490;8.736;2023-08-24T09:30:07;96494.63;;;31.63;61.16
70954;BME280;58618;47.490;8.736;2023-08-24T09:32:55;96485.28;;;31.31;64.13
70954;BME280;58618;47.490;8.736;2023-08-24T09:35:43;96473.28;;;30.96;65.66
70954;BME280;58618;47.490;8.736;2023-08-24T09:38:31;96482.06;;;31.83;62.36
70954;BME280;58618;47.490;8.736;2023-08-24T09:41:18;96473.91;;;31.90;58.81
70954;BME280;58618;47.490;8.736;2023-08-24T09:44:06;96479.81;;;31.81;63.54
70954;BME280;58618;47.490;8.736;2023-08-24T09:46:54;96480.00;;;31.71;67.94
70954;BME280;58618;47.490;8.736;2023-08-24T09:49:41;96471.50;;;32.15;58.45
70954;BME280;58618;47.490;8.736;2023-08-24T09:52:32;96471.34;;;32.22;60.51
70954;BME280;58618;47.490;8.736;2023-08-24T09:55:20;96474.84;;;32.00;57.79
70954;BME280;58618;47.490;8.736;2023-08-24T09:58:09;96469.28;;;32.10;58.77
70954;BME280;58618;47.490;8.736;2023-08-24T10:00:57;96468.53;;;32.30;58.04
70954;BME280;58618;47.490;8.736;2023-08-24T10:03:46;96459.81;;;32.25;58.30
70954;BME280;58618;47.490;8.736;2023-08-24T10:06:36;96454.59;;;32.02;58.51
70954;BME280;58618;47.490;8.736;2023-08-24T10:09:28;96455.38;;;31.83;61.24
70954;BME280;58618;47.490;8.736;2023-08-24T10:12:20;96446.41;;;31.73;61.83
70954;BME280;58618;47.490;8.736;2023-08-24T10:15:10;96443.75;;;31.73;69.56
70954;BME280;58618;47.490;8.736;2023-08-24T10:18:00;96437.88;;;31.82;66.29
70954;BME280;58618;47.490;8.736;2023-08-24T10:20:48;96429.19;;;31.94;64.07
70954;BME280;58618;47.490;8.736;2023-08-24T10:23:36;96425.91;;;32.06;60.27
70954;BME280;58618;47.490;8.736;2023-08-24T10:26:26;96420.56;;;32.06;65.24
70954;BME280;58618;47.490;8.736;2023-08-24T10:29:14;96420.22;;;31.88;63.27
70954;BME280;58618;47.490;8.736;2023-08-24T10:32:04;96427.03;;;31.89;61.16
70954;BME280;58618;47.490;8.736;2023-08-24T10:34:51;96412.75;;;32.15;56.98
70954;BME280;58618;47.490;8.736;2023-08-24T10:37:39;96413.38;;;32.23;58.34
70954;BME280;58618;47.490;8.736;2023-08-24T10:40:32;96408.25;;;32.12;64.80
70954;BME280;58618;47.490;8.736;2023-08-24T10:43:22;96410.19;;;31.92;65.02
70954;BME280;58618;47.490;8.736;2023-08-24T10:46:11;96406.16;;;32.04;58.59
70954;BME280;58618;47.490;8.736;2023-08-24T10:48:59;96394.53;;;32.10;58.98
70954;BME280;58618;47.490;8.736;2023-08-24T10:51:47;96392.09;;;32.19;60.12
70954;BME280;58618;47.490;8.736;2023-08-24T10:54:42;96380.00;;;31.95;59.12
70954;BME280;58618;47.490;8.736;2023-08-24T10:57:38;96382.84;;;31.88;61.41
70954;BME280;58618;47.490;8.736;2023-08-24T11:00:29;96376.94;;;31.61;57.18
70954;BME280;58618;47.490;8.736;2023-08-24T11:03:30;96382.31;;;31.77;64.34
70954;BME280;58618;47.490;8.736;2023-08-24T11:06:19;96366.97;;;31.81;58.90
70954;BME280;58618;47.490;8.736;2023-08-24T11:09:08;96369.22;;;32.18;56.33
70954;BME280;58618;47.490;8.736;2023-08-24T11:12:01;96370.88;;;32.12;60.10
70954;BME280;58618;47.490;8.736;2023-08-24T11:14:49;96358.03;;;32.23;56.08
70954;BME280;58618;47.490;8.736;2023-08-24T11:17:41;96359.81;;;31.94;57.26
70954;BME280;58618;47.490;8.736;2023-08-24T11:20:29;96355.44;;;32.36;55.30
70954;BME280;58618;47.490;8.736;2023-08-24T11:23:18;96350.84;;;32.53;54.09
70954;BME280;58618;47.490;8.736;2023-08-24T11:26:06;96347.25;;;32.43;55.98
70954;BME280;58618;47.490;8.736;2023-08-24T11:28:53;96347.75;;;32.54;51.40
70954;BME280;58618;47.490;8.736;2023-08-24T11:31:41;96352.44;;;32.50;51.42
70954;BME280;58618;47.490;8.736;2023-08-24T11:34:30;96346.00;;;32.48;52.57
70954;BME280;58618;47.490;8.736;2023-08-24T11:37:19;96342.59;;;32.47;51.01
70954;BME280;58618;47.490;8.736;2023-08-24T11:40:16;96338.34;;;32.50;54.01
70954;BME280;58618;47.490;8.736;2023-08-24T11:43:03;96332.38;;;32.58;51.91
70954;BME280;58618;47.490;8.736;2023-08-24T11:45:51;96326.63;;;32.60;52.78
70954;BME280;58618;47.490;8.736;2023-08-24T11:48:39;96332.50;;;32.71;51.16
70954;BME280;58618;47.490;8.736;2023-08-24T11:51:28;96335.16;;;32.71;52.21
70954;BME280;58618;47.490;8.736;2023-08-24T11:54:16;96333.47;;;32.77;52.82
70954;BME280;58618;47.490;8.736;2023-08-24T11:57:05;96326.44;;;32.83;58.38
70954;BME280;58618;47.490;8.736;2023-08-24T11:59:54;96327.94;;;32.84;53.55
70954;BME280;58618;47.490;8.736;2023-08-24T12:02:42;96328.22;;;33.02;49.39
70954;BME280;58618;47.490;8.736;2023-08-24T12:05:29;96328.97;;;33.03;52.94
70954;BME280;58618;47.490;8.736;2023-08-24T12:08:18;96322.53;;;33.00;51.71
70954;BME280;58618;47.490;8.736;2023-08-24T12:11:10;96323.34;;;33.14;49.60
70954;BME280;58618;47.490;8.736;2023-08-24T12:13:57;96313.13;;;33.25;50.72
70954;BME280;58618;47.490;8.736;2023-08-24T12:16:45;96310.56;;;33.34;50.49
70954;BME280;58618;47.490;8.736;2023-08-24T12:19:35;96318.91;;;33.36;55.94
70954;BME280;58618;47.490;8.736;2023-08-24T12:22:22;96306.28;;;33.49;48.10
70954;BME280;58618;47.490;8.736;2023-08-24T12:25:11;96313.69;;;33.58;48.46
70954;BME280;58618;47.490;8.736;2023-08-24T12:28:09;96302.44;;;33.37;47.85
70954;BME280;58618;47.490;8.736;2023-08-24T12:30:57;96300.91;;;33.24;50.64
70954;BME280;58618;47.490;8.736;2023-08-24T12:33:58;96300.94;;;33.49;52.83
70954;BME280;58618;47.490;8.736;2023-08-24T12:36:46;96292.53;;;33.76;44.47
70954;BME280;58618;47.490;8.736;2023-08-24T12:39:35;96287.47;;;33.90;42.30
70954;BME280;58618;47.490;8.736;2023-08-24T12:42:24;96277.22;;;33.76;45.84
70954;BME280;58618;47.490;8.736;2023-08-24T12:45:11;96276.69;;;33.81;46.26
70954;BME280;58618;47.490;8.736;2023-08-24T12:47:59;96265.97;;;33.69;45.77
70954;BME280;58618;47.490;8.736;2023-08-24T12:50:46;96264.56;;;33.64;43.51
70954;BME280;58618;47.490;8.736;2023-08-24T12:53:33;96258.16;;;33.62;43.55
70954;BME280;58618;47.490;8.736;2023-08-24T12:56:21;96251.31;;;33.73;48.72
70954;BME280;58618;47.490;8.736;2023-08-24T12:59:09;96247.25;;;33.69;43.48
70954;BME280;58618;47.490;8.736;2023-08-24T13:01:57;96244.56;;;33.81;40.02
70954;BME280;58618;47.490;8.736;2023-08-24T13:04:45;96234.47;;;33.85;45.98
70954;BME280;58618;47.490;8.736;2023-08-24T13:07:32;96231.41;;;33.74;42.11
70954;BME280;58618;47.490;8.736;2023-08-24T13:10:19;96238.78;;;33.83;42.22
70954;BME280;58618;47.490;8.736;2023-08-24T13:13:07;96223.78;;;33.85;43.34
70954;BME280;58618;47.490;8.736;2023-08-24T13:15:55;96212.78;;;33.83;41.99
70954;BME280;58618;47.490;8.736;2023-08-24T13:18:43;96221.91;;;34.08;38.59
70954;BME280;58618;47.490;8.736;2023-08-24T13:21:30;96219.44;;;34.13;38.97
70954;BME280;58618;47.490;8.736;2023-08-24T13:24:18;96203.69;;;34.15;38.16
70954;BME280;58618;47.490;8.736;2023-08-24T13:27:05;96207.34;;;34.09;44.92
70954;BME280;58618;47.490;8.736;2023-08-24T13:29:59;96192.78;;;34.10;41.20
70954;BME280;58618;47.490;8.736;2023-08-24T13:32:48;96190.72;;;34.14;41.96
70954;BME280;58618;47.490;8.736;2023-08-24T13:35:36;96190.00;;;34.01;45.94
70954;BME280;58618;47.490;8.736;2023-08-24T13:38:23;96184.66;;;34.01;47.58
70954;BME280;58618;47.490;8.736;2023-08-24T13:41:11;96183.91;;;34.00;47.52
70954;BME280;58618;47.490;8.736;2023-08-24T13:43:58;96173.03;;;33.95;47.53
70954;BME280;58618;47.490;8.736;2023-08-24T13:46:45;96183.19;;;34.00;48.90
70954;BME280;58618;47.490;8.736;2023-08-24T13:49:34;96171.94;;;33.92;41.84
70954;BME280;58618;47.490;8.736;2023-08-24T13:52:21;96160.69;;;33.97;41.54
70954;BME280;58618;47.490;8.736;2023-08-24T13:55:09;96161.75;;;34.00;41.59
70954;BME280;58618;47.490;8.736;2023-08-24T13:57:56;96153.47;;;34.07;45.56
70954;BME280;58618;47.490;8.736;2023-08-24T14:00:44;96155.28;;;34.10;50.95
70954;BME280;58618;47.490;8.736;2023-08-24T14:03:31;96154.22;;;34.20;46.76
70954;BME280;58618;47.490;8.736;2023-08-24T14:06:20;96146.34;;;34.25;41.10
70954;BME280;58618;47.490;8.736;2023-08-24T14:09:08;96141.84;;;34.22;45.27
70954;BME280;58618;47.490;8.736;2023-08-24T14:11:56;96132.03;;;34.19;45.81
70954;BME280;58618;47.490;8.736;2023-08-24T14:14:44;96136.13;;;34.33;42.05
70954;BME280;58618;47.490;8.736;2023-08-24T14:17:31;96130.16;;;34.29;41.09
70954;BME280;58618;47.490;8.736;2023-08-24T14:20:19;96119.13;;;34.27;43.03
70954;BME280;58618;47.490;8.736;2023-08-24T14:23:07;96134.28;;;34.21;46.50
70954;BME280;58618;47.490;8.736;2023-08-24T14:25:54;96122.91;;;34.17;41.01
70954;BME280;58618;47.490;8.736;2023-08-24T14:28:49;96122.59;;;34.15;47.37
70954;BME280;58618;47.490;8.736;2023-08-24T14:31:37;96113.63;;;34.09;45.73
70954;BME280;58618;47.490;8.736;2023-08-24T14:34:24;96105.13;;;34.23;48.92
70954;BME280;58618;47.490;8.736;2023-08-24T14:37:12;96097.59;;;33.74;49.11
70954;BME280;58618;47.490;8.736;2023-08-24T14:40:01;96103.47;;;34.04;47.43
70954;BME280;58618;47.490;8.736;2023-08-24T14:42:49;96095.50;;;33.91;48.40
70954;BME280;58618;47.490;8.736;2023-08-24T14:45:37;96091.88;;;33.85;48.05